Time;durP1;ratioP1;P1;durP2;ratioP2;P2;SDS_P1;SDS_P2;PMS_P1;PMS_P2;Temp;Humidity;BMP_temperature;BMP_pressure;BME280_temperature;BME280_humidity;BME280_pressure;Samples;Min_cycle;Max_cycle;Signal;HPM_P1;HPM_P2
2021/12/03 00:01:00;;;;;;;8.30;4.32;;;1.20;99.90;;;;;;4997190;28;20044;-55
2021/12/03 00:03:25;;;;;;;7.95;4.25;;;1.20;99.90;;;;;;5011821;28;20049;-55
2021/12/03 00:05:53;;;;;;;8.20;4.50;;;1.20;99.90;;;;;;5014144;28;20042;-55
2021/12/03 00:08:19;;;;;;;10.85;4.70;;;1.20;99.90;;;;;;5016410;28;20043;-55
2021/12/03 00:10:49;;;;;;;7.55;4.05;;;1.20;99.90;;;;;;5014626;28;20080;-55
2021/12/03 00:13:15;;;;;;;9.07;4.80;;;1.20;99.90;;;;;;5014535;28;20398;-55
2021/12/03 00:15:41;;;;;;;11.05;4.80;;;1.20;99.90;;;;;;4980687;28;20125;-56
2021/12/03 00:18:07;;;;;;;7.43;4.20;;;1.20;99.90;;;;;;5014660;28;20550;-54
2021/12/03 00:20:35;;;;;;;10.35;4.60;;;1.20;99.90;;;;;;4974620;28;20041;-54
2021/12/03 00:23:03;;;;;;;7.38;4.35;;;1.20;99.90;;;;;;4980360;28;20045;-54
2021/12/03 00:25:29;;;;;;;12.32;5.00;;;1.20;99.90;;;;;;5013819;28;20034;-54
2021/12/03 00:27:55;;;;;;;8.07;4.82;;;1.20;99.90;;;;;;4996616;28;20038;-54
2021/12/03 00:30:21;;;;;;;12.57;5.43;;;1.20;99.90;;;;;;4995663;28;20089;-53
2021/12/03 00:32:47;;;;;;;10.55;6.28;;;1.10;99.90;;;;;;4980339;28;20041;-54
2021/12/03 00:35:14;;;;;;;12.90;6.63;;;1.10;99.90;;;;;;5014223;28;20092;-53
2021/12/03 00:37:42;;;;;;;10.20;6.47;;;1.10;99.90;;;;;;5013497;28;20073;-55
2021/12/03 00:40:11;;;;;;;15.27;7.72;;;1.10;99.90;;;;;;5014208;28;20037;-52
2021/12/03 00:42:37;;;;;;;14.10;9.02;;;1.10;99.90;;;;;;5013728;28;20038;-51
2021/12/03 00:45:05;;;;;;;17.58;8.82;;;1.10;99.90;;;;;;5016301;28;20033;-52
2021/12/03 00:47:31;;;;;;;15.07;9.02;;;1.20;99.90;;;;;;5014631;28;20037;-51
2021/12/03 00:49:57;;;;;;;15.00;9.27;;;1.20;99.90;;;;;;4990533;28;20041;-54
2021/12/03 00:52:24;;;;;;;16.38;10.00;;;1.20;99.90;;;;;;5002119;28;20132;-56
2021/12/03 00:54:50;;;;;;;20.27;10.75;;;1.20;99.90;;;;;;5012410;28;20034;-52
2021/12/03 00:57:16;;;;;;;17.40;10.25;;;1.20;99.90;;;;;;5014189;28;20041;-53
2021/12/03 01:00:27;;;;;;;20.17;11.15;;;1.20;99.90;;;;;;4983246;28;20030;-53
2021/12/03 01:03:03;;;;;;;19.17;11.00;;;1.10;99.90;;;;;;5014748;28;20061;-54
2021/12/03 01:05:29;;;;;;;17.38;11.45;;;1.10;99.90;;;;;;5013638;28;20092;-50
2021/12/03 01:07:55;;;;;;;16.90;11.88;;;1.20;99.90;;;;;;5013499;28;20049;-54
2021/12/03 01:10:22;;;;;;;19.67;12.18;;;1.20;99.90;;;;;;5010420;28;20417;-54
2021/12/03 01:12:48;;;;;;;16.92;11.77;;;1.30;99.90;;;;;;5002817;28;20041;-53
2021/12/03 01:15:16;;;;;;;20.58;12.63;;;1.20;99.90;;;;;;5013755;28;20054;-56
2021/12/03 01:17:42;;;;;;;21.83;13.38;;;1.30;99.90;;;;;;5012094;28;20046;-51
2021/12/03 01:20:10;;;;;;;20.80;13.23;;;1.30;99.90;;;;;;5015803;28;20038;-53
2021/12/03 01:22:36;;;;;;;21.88;12.63;;;1.30;99.90;;;;;;5013114;28;20042;-51
2021/12/03 01:25:05;;;;;;;18.52;12.55;;;1.30;99.90;;;;;;5013362;28;20048;-51
2021/12/03 01:27:30;;;;;;;20.10;12.40;;;1.30;99.90;;;;;;5012117;28;20061;-50
2021/12/03 01:29:56;;;;;;;22.45;12.73;;;1.30;99.90;;;;;;4979407;28;20505;-54
2021/12/03 01:32:21;;;;;;;21.65;11.88;;;1.30;99.90;;;;;;5012700;28;20038;-50
2021/12/03 01:34:47;;;;;;;18.48;11.23;;;1.30;99.90;;;;;;5012477;28;20034;-53
2021/12/03 01:37:13;;;;;;;17.45;11.80;;;1.30;99.90;;;;;;5008369;28;20041;-51
2021/12/03 01:39:38;;;;;;;20.92;11.88;;;1.30;99.90;;;;;;5012509;28;20494;-52
2021/12/03 01:42:04;;;;;;;18.30;12.27;;;1.30;99.90;;;;;;5013865;28;20386;-52
2021/12/03 01:44:30;;;;;;;20.48;12.10;;;1.30;99.90;;;;;;5014492;28;20141;-54
2021/12/03 01:46:56;;;;;;;18.98;13.00;;;1.30;99.90;;;;;;5001955;28;20566;-51
2021/12/03 01:49:23;;;;;;;21.58;12.45;;;1.30;99.90;;;;;;4999033;28;20128;-50
2021/12/03 01:51:49;;;;;;;20.40;12.30;;;1.30;99.90;;;;;;5012179;28;20030;-53
2021/12/03 01:54:14;;;;;;;19.58;11.02;;;1.30;99.90;;;;;;5008392;28;20030;-55
2021/12/03 01:56:40;;;;;;;18.90;12.38;;;1.30;99.90;;;;;;5019048;28;20038;-51
2021/12/03 01:59:07;;;;;;;19.90;11.60;;;1.20;99.90;;;;;;4994259;28;20077;-51
2021/12/03 02:01:33;;;;;;;17.77;12.40;;;1.20;99.90;;;;;;5007245;28;20379;-50
2021/12/03 02:04:00;;;;;;;16.85;12.27;;;1.20;99.90;;;;;;4995369;28;20040;-53
2021/12/03 02:06:28;;;;;;;19.08;11.13;;;1.20;99.90;;;;;;5011834;28;20042;-50
2021/12/03 02:08:55;;;;;;;20.05;11.90;;;1.20;99.90;;;;;;5011890;28;20030;-50
2021/12/03 02:11:21;;;;;;;22.38;11.95;;;1.20;99.90;;;;;;5012483;28;20037;-50
2021/12/03 02:13:48;;;;;;;18.83;12.05;;;1.10;99.90;;;;;;5002883;28;20030;-53
2021/12/03 02:16:15;;;;;;;20.52;12.25;;;1.20;99.90;;;;;;5009762;28;20117;-55
2021/12/03 02:18:41;;;;;;;18.13;11.63;;;1.20;99.90;;;;;;5006987;28;20045;-50
2021/12/03 02:21:08;;;;;;;17.83;12.27;;;1.20;99.90;;;;;;5014026;28;20333;-53
2021/12/03 02:23:35;;;;;;;18.90;12.20;;;1.20;99.90;;;;;;5012058;28;20046;-53
2021/12/03 02:26:00;;;;;;;20.17;11.90;;;1.20;99.90;;;;;;5011941;28;20045;-50
2021/12/03 02:28:29;;;;;;;17.73;12.40;;;1.20;99.90;;;;;;5011843;28;20042;-53
2021/12/03 02:30:55;;;;;;;21.05;12.75;;;1.20;99.90;;;;;;5006490;28;20042;-51
2021/12/03 02:33:22;;;;;;;18.33;11.90;;;1.20;99.90;;;;;;5011138;28;20034;-52
2021/12/03 02:35:48;;;;;;;19.73;12.70;;;1.20;99.90;;;;;;5011931;28;20100;-52
2021/12/03 02:38:17;;;;;;;22.75;12.75;;;1.20;99.90;;;;;;5013715;28;20096;-53
2021/12/03 02:40:44;;;;;;;17.10;12.07;;;1.20;99.90;;;;;;5004939;28;20046;-51
2021/12/03 02:43:10;;;;;;;21.40;13.10;;;1.20;99.90;;;;;;5009721;28;20037;-52
2021/12/03 02:45:36;;;;;;;21.25;13.13;;;1.30;99.90;;;;;;5011374;28;20413;-53
2021/12/03 02:48:04;;;;;;;20.67;12.82;;;1.20;99.90;;;;;;5003321;28;20092;-53
2021/12/03 02:50:30;;;;;;;21.50;13.40;;;1.20;99.90;;;;;;5011397;28;20092;-51
2021/12/03 02:52:56;;;;;;;20.40;13.70;;;1.20;99.90;;;;;;4979729;28;20048;-52
2021/12/03 02:55:22;;;;;;;19.15;12.75;;;1.20;99.90;;;;;;5006099;28;20554;-54
2021/12/03 02:57:48;;;;;;;21.08;12.95;;;1.20;99.90;;;;;;5004437;28;20033;-53
2021/12/03 03:00:18;;;;;;;19.63;12.55;;;1.20;99.90;;;;;;5000643;28;20092;-56
2021/12/03 03:02:45;;;;;;;24.65;13.07;;;1.20;99.90;;;;;;5008667;28;20049;-50
2021/12/03 03:05:12;;;;;;;19.00;12.48;;;1.20;99.90;;;;;;5007905;28;20053;-54
2021/12/03 03:07:38;;;;;;;18.58;13.40;;;1.20;99.90;;;;;;5014311;28;20037;-50
2021/12/03 03:10:09;;;;;;;19.30;12.55;;;1.20;99.90;;;;;;5011303;28;20086;-50
2021/12/03 03:12:35;;;;;;;18.70;13.10;;;1.10;99.90;;;;;;4996634;28;20046;-51
2021/12/03 03:15:01;;;;;;;21.67;13.32;;;1.10;99.90;;;;;;4990380;28;20034;-53
2021/12/03 03:17:29;;;;;;;15.80;11.70;;;1.10;99.90;;;;;;5010419;28;20052;-53
2021/12/03 03:19:57;;;;;;;19.88;12.27;;;1.10;99.90;;;;;;5011539;28;20402;-50
2021/12/03 03:22:23;;;;;;;22.98;12.35;;;1.10;99.90;;;;;;5012227;28;20092;-50
2021/12/03 03:24:51;;;;;;;16.00;11.82;;;1.10;99.90;;;;;;5011750;28;20034;-53
2021/12/03 03:27:16;;;;;;;17.67;11.90;;;1.10;99.90;;;;;;5006395;28;20046;-52
2021/12/03 03:29:44;;;;;;;18.88;12.77;;;1.10;99.90;;;;;;5016852;28;20466;-50
2021/12/03 03:32:11;;;;;;;18.13;12.55;;;1.10;99.90;;;;;;5011332;28;20042;-51
2021/12/03 03:34:37;;;;;;;17.05;12.18;;;1.10;99.90;;;;;;4999045;28;20037;-50
2021/12/03 03:37:03;;;;;;;18.88;12.75;;;1.10;99.90;;;;;;5016474;28;20052;-50
2021/12/03 03:39:28;;;;;;;21.13;13.23;;;1.10;99.90;;;;;;5009614;28;20042;-51
2021/12/03 03:41:55;;;;;;;20.92;12.68;;;1.10;99.90;;;;;;5014993;28;20042;-50
2021/12/03 03:44:21;;;;;;;19.88;12.77;;;1.00;99.90;;;;;;5010513;28;20049;-50
2021/12/03 03:46:50;;;;;;;18.83;12.07;;;1.00;99.90;;;;;;5011300;28;20127;-50
2021/12/03 03:49:15;;;;;;;18.67;13.15;;;1.00;99.90;;;;;;5007671;28;20041;-51
2021/12/03 03:51:41;;;;;;;20.90;12.50;;;1.10;99.90;;;;;;5010571;28;20050;-51
2021/12/03 03:54:07;;;;;;;21.10;12.55;;;1.10;99.90;;;;;;5011532;28;20030;-51
2021/12/03 03:56:33;;;;;;;17.88;12.07;;;1.10;99.90;;;;;;5002460;28;20490;-51
2021/12/03 03:58:59;;;;;;;20.20;13.00;;;1.00;99.90;;;;;;5010990;28;20497;-50
2021/12/03 04:01:24;;;;;;;18.80;12.63;;;1.00;99.90;;;;;;4979633;28;20040;-51
2021/12/03 04:03:50;;;;;;;19.88;12.55;;;1.10;99.90;;;;;;5011022;28;20041;-52
2021/12/03 04:06:18;;;;;;;17.77;12.52;;;1.10;99.90;;;;;;4993238;28;20034;-51
2021/12/03 04:08:46;;;;;;;14.73;11.75;;;1.00;99.90;;;;;;4998602;28;20049;-52
2021/12/03 04:11:13;;;;;;;16.13;11.45;;;1.10;99.90;;;;;;5020735;28;20042;-52
2021/12/03 04:13:38;;;;;;;20.92;12.30;;;1.10;99.90;;;;;;5009489;28;20040;-52
2021/12/03 04:16:05;;;;;;;18.13;12.05;;;1.10;99.90;;;;;;5011298;28;20472;-51
2021/12/03 04:18:31;;;;;;;17.98;13.02;;;1.10;99.90;;;;;;5013792;28;20096;-54
2021/12/03 04:20:56;;;;;;;19.02;12.90;;;1.10;99.90;;;;;;5012955;28;20038;-52
2021/12/03 04:23:22;;;;;;;21.02;13.23;;;1.10;99.90;;;;;;5010194;28;20049;-53
2021/12/03 04:25:49;;;;;;;21.45;13.50;;;1.10;99.90;;;;;;4997106;28;20033;-52
2021/12/03 04:28:18;;;;;;;18.95;12.85;;;1.10;99.90;;;;;;5017184;28;20033;-52
2021/12/03 04:30:44;;;;;;;21.02;12.50;;;1.10;99.90;;;;;;5013654;28;20034;-53
2021/12/03 04:33:11;;;;;;;19.52;13.45;;;1.10;99.90;;;;;;5017720;28;20045;-51
2021/12/03 04:35:37;;;;;;;17.00;12.35;;;1.10;99.90;;;;;;4979984;28;20044;-52
2021/12/03 04:38:04;;;;;;;21.83;13.25;;;1.10;99.90;;;;;;5016476;28;20042;-54
2021/12/03 04:40:33;;;;;;;20.38;13.07;;;1.20;99.90;;;;;;4996260;28;20509;-51
2021/12/03 04:42:59;;;;;;;16.50;12.63;;;1.10;99.90;;;;;;5013923;28;20038;-51
2021/12/03 04:45:27;;;;;;;19.48;11.80;;;1.20;99.90;;;;;;5013716;28;20489;-51
2021/12/03 04:47:55;;;;;;;19.30;13.27;;;1.20;99.90;;;;;;5013838;28;20553;-51
2021/12/03 04:50:24;;;;;;;22.20;13.05;;;1.20;99.90;;;;;;5010534;28;20038;-51
2021/12/03 04:52:50;;;;;;;22.35;14.00;;;1.20;99.90;;;;;;5001714;28;20065;-52
2021/12/03 04:55:17;;;;;;;21.55;13.00;;;1.20;99.90;;;;;;4980043;28;20049;-51
2021/12/03 04:57:43;;;;;;;19.25;13.60;;;1.10;99.90;;;;;;5014108;28;20065;-52
2021/12/03 05:00:17;;;;;;;18.95;13.07;;;1.10;99.90;;;;;;4980098;28;20565;-51
2021/12/03 05:02:44;;;;;;;19.35;12.00;;;1.10;99.90;;;;;;4997233;28;20502;-51
2021/12/03 05:05:10;;;;;;;20.83;13.45;;;1.20;99.90;;;;;;5017319;28;20426;-53
2021/12/03 05:10:06;;;;;;;18.52;12.38;;;1.20;99.90;;;;;;5023351;28;20042;-53
2021/12/03 05:12:32;;;;;;;16.67;12.50;;;1.20;99.90;;;;;;5013087;28;20045;-52
2021/12/03 05:14:57;;;;;;;23.63;13.95;;;1.20;99.90;;;;;;5013793;28;20030;-55
2021/12/03 05:17:23;;;;;;;21.33;13.07;;;1.20;99.90;;;;;;5007512;28;20038;-52
2021/12/03 05:19:49;;;;;;;25.85;12.60;;;1.20;99.90;;;;;;5013373;28;20034;-54
2021/12/03 05:22:15;;;;;;;20.58;13.38;;;1.20;99.90;;;;;;4991265;28;20482;-52
2021/12/03 05:24:45;;;;;;;23.33;12.50;;;1.20;99.90;;;;;;5013487;28;20042;-53
2021/12/03 05:27:17;;;;;;;23.95;12.68;;;1.20;99.90;;;;;;5020198;28;20046;-51
2021/12/03 05:29:44;;;;;;;23.50;12.50;;;1.20;99.90;;;;;;5013385;28;20042;-52
2021/12/03 05:32:12;;;;;;;18.65;12.45;;;1.30;99.90;;;;;;5020402;28;20040;-52
2021/12/03 05:34:38;;;;;;;19.83;12.88;;;1.30;99.90;;;;;;5000908;28;20033;-51
2021/12/03 05:37:08;;;;;;;24.13;12.88;;;1.30;99.90;;;;;;5012751;28;20509;-54
2021/12/03 05:39:35;;;;;;;19.23;11.63;;;1.40;99.90;;;;;;4993787;28;20053;-50
2021/12/03 05:42:01;;;;;;;24.17;13.02;;;1.40;99.90;;;;;;5009707;28;20133;-53
2021/12/03 05:44:29;;;;;;;20.63;12.23;;;1.40;99.90;;;;;;5010897;28;20085;-53
2021/12/03 05:46:55;;;;;;;24.85;12.07;;;1.40;99.90;;;;;;5012791;28;20053;-54
2021/12/03 05:49:21;;;;;;;21.23;12.18;;;1.40;99.90;;;;;;4970604;28;20108;-52
2021/12/03 05:51:46;;;;;;;19.27;11.85;;;1.50;99.90;;;;;;4970588;28;20072;-50
2021/12/03 05:54:12;;;;;;;23.60;11.52;;;1.40;99.90;;;;;;5008759;28;20034;-50
2021/12/03 05:56:38;;;;;;;22.80;11.93;;;1.50;99.90;;;;;;5012091;28;20147;-49
2021/12/03 05:59:03;;;;;;;18.08;10.98;;;1.50;99.90;;;;;;5007254;28;20045;-53
2021/12/03 06:01:29;;;;;;;23.63;12.35;;;1.60;99.90;;;;;;5011410;28;20042;-54
2021/12/03 06:03:56;;;;;;;18.52;11.50;;;1.50;99.90;;;;;;4978533;28;20049;-53
2021/12/03 06:06:22;;;;;;;18.33;11.40;;;1.50;99.90;;;;;;5011986;28;20410;-54
2021/12/03 06:08:48;;;;;;;19.63;11.30;;;1.50;99.90;;;;;;4977662;28;20034;-54
2021/12/03 06:11:14;;;;;;;21.77;11.73;;;1.60;99.90;;;;;;5017564;28;20049;-54
2021/12/03 06:13:39;;;;;;;21.58;11.50;;;1.60;99.90;;;;;;5003741;28;20025;-54
2021/12/03 06:16:11;;;;;;;22.48;11.63;;;1.60;99.90;;;;;;5013010;28;20191;-53
2021/12/03 06:18:37;;;;;;;18.90;11.15;;;1.60;99.90;;;;;;5012079;28;20049;-53
2021/12/03 06:21:05;;;;;;;19.88;11.77;;;1.60;99.90;;;;;;5017041;28;20038;-52
2021/12/03 06:23:31;;;;;;;19.75;11.82;;;1.70;99.90;;;;;;4996611;28;20034;-50
2021/12/03 06:25:58;;;;;;;18.80;11.45;;;1.70;99.90;;;;;;5012403;28;20045;-50
2021/12/03 06:28:28;;;;;;;20.15;11.68;;;1.70;99.90;;;;;;4994281;28;20050;-51
2021/12/03 06:30:55;;;;;;;26.27;12.18;;;1.70;99.90;;;;;;4975384;28;20119;-50
2021/12/03 06:33:21;;;;;;;20.38;12.30;;;1.60;99.90;;;;;;5003535;28;20398;-51
2021/12/03 06:35:47;;;;;;;23.90;12.85;;;1.60;99.90;;;;;;4959018;28;20038;-52
2021/12/03 06:38:14;;;;;;;22.73;12.00;;;1.60;99.90;;;;;;5008035;28;20124;-51
2021/12/03 06:40:39;;;;;;;20.70;11.43;;;1.80;99.90;;;;;;5009827;28;20401;-50
2021/12/03 06:43:05;;;;;;;20.48;11.68;;;1.70;99.90;;;;;;5009902;28;20116;-49
2021/12/03 06:45:31;;;;;;;24.52;11.85;;;1.70;99.90;;;;;;5003392;28;20549;-50
2021/12/03 06:47:56;;;;;;;21.77;12.68;;;1.70;99.90;;;;;;5009563;28;20116;-54
2021/12/03 06:50:24;;;;;;;24.13;11.85;;;1.70;99.90;;;;;;4993317;22;20077;-50
2021/12/03 06:53:01;;;;;;;19.15;11.20;;;1.80;99.90;;;;;;4980631;28;20385;-50
2021/12/03 06:55:27;;;;;;;19.52;11.27;;;1.80;99.90;;;;;;4985209;28;20405;-50
2021/12/03 06:57:53;;;;;;;18.80;11.30;;;1.80;99.90;;;;;;4985918;28;20042;-50
2021/12/03 07:00:20;;;;;;;22.10;11.70;;;1.90;99.90;;;;;;4991433;28;20052;-50
2021/12/03 07:02:45;;;;;;;22.15;11.20;;;2.00;99.90;;;;;;4986622;28;20045;-50
2021/12/03 07:05:12;;;;;;;23.75;11.32;;;2.00;99.90;;;;;;4964925;28;20038;-52
2021/12/03 07:07:38;;;;;;;23.55;12.13;;;2.00;99.90;;;;;;4976935;28;20049;-51
2021/12/03 07:10:05;;;;;;;22.92;11.48;;;2.00;99.90;;;;;;4982070;28;20038;-50
2021/12/03 07:12:31;;;;;;;22.17;12.15;;;2.00;99.90;;;;;;4957057;28;20038;-50
2021/12/03 07:14:57;;;;;;;22.15;12.27;;;2.10;99.90;;;;;;4978441;28;20049;-54
2021/12/03 07:17:23;;;;;;;24.23;12.38;;;2.10;99.90;;;;;;4983782;28;20814;-53
2021/12/03 07:19:49;;;;;;;21.23;12.43;;;2.10;99.90;;;;;;4983357;28;20069;-50
2021/12/03 07:22:14;;;;;;;21.77;12.60;;;2.10;99.90;;;;;;4976682;28;20074;-51
2021/12/03 07:24:40;;;;;;;19.25;11.77;;;2.10;99.90;;;;;;4976565;28;20048;-53
2021/12/03 07:27:06;;;;;;;22.85;11.63;;;2.10;99.90;;;;;;4985794;28;20049;-51
2021/12/03 07:29:32;;;;;;;20.90;11.10;;;2.20;99.90;;;;;;4979553;28;20047;-50
2021/12/03 07:31:58;;;;;;;20.23;10.85;;;2.20;99.90;;;;;;4983390;28;20046;-50
2021/12/03 07:34:23;;;;;;;23.80;11.95;;;2.20;99.90;;;;;;4986759;28;20395;-50
2021/12/03 07:36:49;;;;;;;21.45;12.40;;;2.10;99.90;;;;;;4984987;28;20065;-50
2021/12/03 07:39:14;;;;;;;26.23;12.63;;;2.10;99.90;;;;;;4983644;28;20042;-50
2021/12/03 07:41:41;;;;;;;24.83;13.00;;;2.10;99.90;;;;;;4982581;28;20054;-55
2021/12/03 07:44:07;;;;;;;23.75;13.18;;;2.10;99.90;;;;;;4986170;28;20113;-52
2021/12/03 07:46:33;;;;;;;28.40;15.15;;;2.10;99.90;;;;;;4989465;28;20181;-53
2021/12/03 07:48:59;;;;;;;27.85;14.82;;;2.10;99.90;;;;;;4980266;28;20057;-52
2021/12/03 07:51:26;;;;;;;31.58;16.42;;;2.10;99.90;;;;;;4988125;28;20482;-53
2021/12/03 07:53:51;;;;;;;32.00;17.35;;;2.10;99.90;;;;;;4986247;28;20047;-53
2021/12/03 07:56:17;;;;;;;33.30;17.90;;;2.10;99.90;;;;;;4979519;28;20042;-51
2021/12/03 07:58:43;;;;;;;32.13;17.67;;;2.10;99.90;;;;;;4976901;28;20056;-54
2021/12/03 08:01:08;;;;;;;30.23;17.42;;;2.20;99.90;;;;;;4971564;28;20048;-54
2021/12/03 08:03:34;;;;;;;31.55;18.17;;;2.20;99.90;;;;;;4970989;28;20161;-52
2021/12/03 08:06:05;;;;;;;34.78;18.08;;;2.20;99.90;;;;;;4979485;28;20105;-50
2021/12/03 08:08:31;;;;;;;37.72;19.70;;;2.20;99.90;;;;;;4969735;28;20057;-54
2021/12/03 08:10:57;;;;;;;36.22;19.80;;;2.30;99.90;;;;;;4986044;28;20108;-53
2021/12/03 08:13:22;;;;;;;41.17;19.70;;;2.30;99.90;;;;;;4988642;28;20117;-50
2021/12/03 08:15:48;;;;;;;41.05;21.23;;;2.30;99.90;;;;;;4994404;28;20038;-52
2021/12/03 08:18:14;;;;;;;36.40;21.80;;;2.20;99.90;;;;;;4991921;28;20038;-55
2021/12/03 08:20:40;;;;;;;37.30;21.00;;;2.30;99.90;;;;;;4992164;28;20053;-51
2021/12/03 08:23:05;;;;;;;47.85;22.30;;;2.30;99.90;;;;;;5004315;28;20085;-51
2021/12/03 08:25:32;;;;;;;41.67;22.48;;;2.30;99.90;;;;;;4980489;28;20038;-51
2021/12/03 08:27:57;;;;;;;44.47;23.13;;;2.40;99.90;;;;;;4989066;28;20038;-52
2021/12/03 08:30:27;;;;;;;39.67;22.17;;;2.30;99.90;;;;;;4994107;28;20561;-51
2021/12/03 08:32:52;;;;;;;45.35;23.50;;;2.30;99.90;;;;;;4994009;28;20125;-50
2021/12/03 08:35:18;;;;;;;36.33;21.30;;;2.30;99.90;;;;;;4993688;28;20126;-51
2021/12/03 08:37:47;;;;;;;39.72;21.77;;;2.40;99.90;;;;;;4987608;28;20478;-53
2021/12/03 08:40:14;;;;;;;46.15;23.13;;;2.40;99.90;;;;;;4988455;28;20038;-50
2021/12/03 08:42:39;;;;;;;50.08;24.17;;;2.50;99.90;;;;;;4976850;28;20057;-50
2021/12/03 08:45:05;;;;;;;52.63;24.08;;;2.50;99.90;;;;;;4993926;28;20034;-50
2021/12/03 08:47:33;;;;;;;49.47;24.75;;;2.50;99.90;;;;;;4985849;28;20038;-50
2021/12/03 08:50:01;;;;;;;44.83;23.65;;;2.50;99.90;;;;;;4993886;28;20049;-51
2021/12/03 08:52:45;;;;;;;47.72;23.40;;;2.60;99.90;;;;;;4993251;28;20034;-52
2021/12/03 08:55:10;;;;;;;47.63;23.15;;;2.60;99.90;;;;;;4994667;28;20038;-51
2021/12/03 08:57:36;;;;;;;47.38;23.73;;;2.70;99.90;;;;;;4993345;28;20042;-52
2021/12/03 09:00:14;;;;;;;45.90;23.38;;;2.70;99.90;;;;;;4991850;28;20042;-50
2021/12/03 09:02:42;;;;;;;46.10;23.48;;;2.80;99.90;;;;;;4993479;28;20045;-50
2021/12/03 09:05:08;;;;;;;47.50;24.58;;;2.70;99.90;;;;;;4986136;28;20039;-50
2021/12/03 09:07:35;;;;;;;50.00;24.35;;;2.70;99.90;;;;;;4974777;28;20054;-50
2021/12/03 09:10:01;;;;;;;49.80;23.80;;;2.70;99.90;;;;;;4992146;28;20431;-50
2021/12/03 09:12:27;;;;;;;49.15;22.33;;;2.70;99.90;;;;;;4992958;28;20034;-52
2021/12/03 09:14:59;;;;;;;44.95;22.45;;;2.70;99.90;;;;;;4993287;28;20033;-53
2021/12/03 09:22:43;;;;;;;37.83;19.48;;;2.80;99.90;;;;;;4993292;28;20053;-52
2021/12/03 09:25:07;;;;;;;32.30;17.65;;;2.90;99.90;;;;;;4992427;28;20125;-51
2021/12/03 09:27:33;;;;;;;38.92;17.40;;;2.90;99.90;;;;;;4975757;28;20045;-52
2021/12/03 09:29:59;;;;;;;38.45;17.92;;;3.00;99.90;;;;;;4993142;28;20038;-50
2021/12/03 09:32:29;;;;;;;38.80;17.27;;;3.10;99.90;;;;;;4989930;28;20330;-50
2021/12/03 09:34:55;;;;;;;38.50;17.35;;;3.10;99.90;;;;;;4987393;28;20042;-51
2021/12/03 09:37:21;;;;;;;35.60;16.55;;;3.10;99.90;;;;;;4986054;28;20101;-51
2021/12/03 09:39:47;;;;;;;38.80;16.05;;;3.10;99.90;;;;;;4994286;28;20046;-51
2021/12/03 09:42:15;;;;;;;43.95;15.63;;;3.10;99.90;;;;;;4990044;28;20042;-51
2021/12/03 09:44:44;;;;;;;32.55;15.48;;;3.20;99.90;;;;;;4984789;28;20056;-50
2021/12/03 09:47:09;;;;;;;38.13;15.40;;;3.10;99.90;;;;;;4992305;28;20038;-52
2021/12/03 09:49:37;;;;;;;28.15;12.57;;;3.20;99.90;;;;;;4992501;28;20561;-50
2021/12/03 09:52:28;;;;;;;30.80;12.43;;;3.30;99.90;;;;;;4988269;28;20049;-50
2021/12/03 09:54:59;;;;;;;31.20;12.07;;;3.30;99.90;;;;;;4981322;28;20034;-52
2021/12/03 09:57:56;;;;;;;32.47;12.37;;;3.30;99.90;;;;;;4990881;28;20052;-50
2021/12/03 10:00:54;;;;;;;25.50;11.35;;;3.40;99.90;;;;;;4989584;28;20138;-51
2021/12/03 10:03:38;;;;;;;24.55;10.48;;;3.40;99.90;;;;;;4984893;28;20418;-50
2021/12/03 10:07:35;;;;;;;26.40;10.57;;;3.50;99.90;;;;;;4989583;28;20522;-52
2021/12/03 10:10:05;;;;;;;24.25;9.82;;;3.50;99.90;;;;;;4988001;28;20042;-50
2021/12/03 10:12:20;;;;;;;27.08;11.00;;;3.50;99.90;;;;;;4987462;28;20327;-50
2021/12/03 10:14:57;;;;;;;27.10;10.30;;;3.50;99.90;;;;;;4992520;28;20038;-51
2021/12/03 10:17:38;;;;;;;26.35;9.40;;;3.50;99.90;;;;;;4987555;28;20449;-50
2021/12/03 10:20:14;;;;;;;22.67;9.20;;;3.50;99.90;;;;;;4987626;28;20035;-50
2021/12/03 10:23:25;;;;;;;22.70;8.48;;;3.50;99.90;;;;;;4990708;28;20125;-50
2021/12/03 10:26:06;;;;;;;21.38;8.65;;;3.50;99.90;;;;;;4987261;28;20070;-50
2021/12/03 10:31:45;;;;;;;23.40;8.73;;;3.50;99.90;;;;;;4987010;28;20042;-52
2021/12/03 10:34:06;;;;;;;25.23;8.75;;;3.50;99.90;;;;;;4985559;28;20050;-50
2021/12/03 10:45:15;;;;;;;20.00;6.95;;;3.40;99.90;;;;;;4988638;28;20314;-51
2021/12/03 10:50:46;;;;;;;25.75;7.72;;;3.50;99.90;;;;;;4950346;28;20042;-50
2021/12/03 10:53:32;;;;;;;27.85;7.90;;;3.60;99.90;;;;;;4984096;28;20042;-50
2021/12/03 11:02:19;;;;;;;23.90;7.53;;;3.50;99.90;;;;;;4984049;28;20046;-50
2021/12/03 11:05:15;;;;;;;19.83;6.78;;;3.60;99.90;;;;;;4983397;28;20101;-51
2021/12/03 11:16:37;;;;;;;23.55;5.97;;;3.60;99.90;;;;;;4994724;28;19941;-52
2021/12/03 11:19:19;;;;;;;19.80;5.55;;;3.60;99.90;;;;;;4980822;28;20039;-50
2021/12/03 11:50:26;;;;;;;;;;;3.60;99.90;;;;;;4983986;28;19921;-50
2021/12/03 12:01:39;;;;;;;;;;;3.50;99.90;;;;;;4957603;28;19918;-50
2021/12/03 12:07:50;;;;;;;;;;;3.40;99.90;;;;;;4985618;28;19922;-53
2021/12/03 12:18:16;;;;;;;;;;;3.40;99.90;;;;;;4985471;28;20294;-51
2021/12/03 12:20:39;;;;;;;;;;;3.40;99.90;;;;;;4986878;28;19964;-52
2021/12/03 12:23:49;;;;;;;;;;;3.30;99.90;;;;;;4983214;28;20008;-54
2021/12/03 12:47:23;;;;;;;;;;;3.40;99.90;;;;;;4988216;28;19917;-55
2021/12/03 13:03:59;;;;;;;;;;;3.70;99.90;;;;;;5006029;28;19948;-55
2021/12/03 13:11:57;;;;;;;;;;;3.80;99.90;;;;;;5002413;28;20471;-55
2021/12/03 13:28:28;;;;;;;;;;;3.90;99.90;;;;;;5007789;28;19983;-55
2021/12/03 13:31:49;;;;;;;;;;;4.00;99.90;;;;;;5010135;28;20444;-55
2021/12/03 13:34:52;;;;;;;;;;;4.10;99.90;;;;;;5005966;28;19918;-55
2021/12/03 13:37:55;;;;;;;;;;;4.00;99.90;;;;;;5008531;28;19956;-56
2021/12/03 14:02:02;;;;;;;;;;;4.20;99.90;;;;;;4993995;28;20297;-55
2021/12/03 14:05:03;;;;;;;;;;;4.20;99.90;;;;;;5004672;28;19918;-55
2021/12/03 14:33:29;;;;;;;;;;;4.30;99.90;;;;;;5008559;28;19925;-55
2021/12/03 14:45:47;;;;;;;;;;;4.40;99.90;;;;;;5010721;28;19980;-56
2021/12/03 14:48:34;;;;;;;;;;;4.40;99.90;;;;;;5008886;28;19918;-55
2021/12/03 14:56:07;;;;;;;;;;;4.50;99.90;;;;;;5004664;28;19987;-54
2021/12/03 15:01:25;;;;;;;;;;;4.40;99.90;;;;;;4987401;28;20340;-54
2021/12/03 15:04:06;;;;;;;;;;;4.40;99.90;;;;;;5004625;28;19976;-55
2021/12/03 15:09:26;;;;;;;;;;;4.40;99.90;;;;;;4990305;28;19925;-54
2021/12/03 15:18:14;;;;;;;;;;;4.50;99.90;;;;;;4991702;28;19917;-55
2021/12/03 15:20:45;;;;;;;;;;;4.50;99.90;;;;;;5008024;28;20344;-53
2021/12/03 15:26:34;;;;;;;;;;;4.50;99.90;;;;;;4966754;28;19917;-52
2021/12/03 15:37:07;;;;;;;;;;;4.40;99.90;;;;;;5005388;28;20008;-54
2021/12/03 15:40:14;;;;;;;;;;;4.40;99.90;;;;;;5003155;28;19918;-54
2021/12/03 15:56:11;;;;;;;;;;;4.40;99.90;;;;;;5003283;28;19945;-54
2021/12/03 16:04:28;;;;;;;;;;;4.50;99.90;;;;;;5005472;28;19933;-54
2021/12/03 16:07:18;;;;;;;;;;;4.40;99.90;;;;;;5009664;28;19921;-52
2021/12/03 16:12:49;;;;;;;;;;;4.40;99.90;;;;;;5007041;28;20020;-53
2021/12/03 16:20:50;;;;;;;;;;;4.50;99.90;;;;;;5007175;28;20009;-55
2021/12/03 16:48:16;;;;;;;;;;;4.50;99.90;;;;;;5011701;28;19925;-52
2021/12/03 16:53:24;;;;;;;;;;;4.50;99.90;;;;;;4997928;28;20441;-51
2021/12/03 16:58:45;;;;;;;;;;;4.60;99.90;;;;;;4992457;28;20000;-53
2021/12/03 17:01:20;;;;;;;;;;;4.60;99.90;;;;;;4992565;28;20337;-54
2021/12/03 17:03:51;;;;;;;;;;;4.60;99.90;;;;;;5008960;28;19979;-53
2021/12/03 17:11:32;;;;;;;;;;;4.60;99.90;;;;;;5005228;28;19969;-54
2021/12/03 17:22:38;;;;;;;;;;;4.70;99.90;;;;;;5008193;28;20048;-51
2021/12/03 17:49:15;;;;;;;;;;;4.60;99.90;;;;;;5005524;28;20371;-52
2021/12/03 17:51:55;;;;;;;;;;;4.60;99.90;;;;;;4974604;28;20393;-53
2021/12/03 17:54:38;;;;;;;;;;;4.60;99.90;;;;;;5007380;28;19921;-51
2021/12/03 17:57:12;;;;;;;;;;;4.60;99.90;;;;;;5004248;28;19923;-50
2021/12/03 17:59:41;;;;;;;;;;;4.60;99.90;;;;;;5012498;28;20012;-52
2021/12/03 18:05:02;;;;;;;;;;;4.60;99.90;;;;;;5000435;28;19980;-52
2021/12/03 18:07:55;;;;;;;;;;;4.70;99.90;;;;;;5010201;28;19964;-53
2021/12/03 18:19:00;;;;;;;;;;;4.60;99.90;;;;;;5002869;28;19976;-53
2021/12/03 18:48:38;;;;;;;;;;;4.60;99.90;;;;;;5009369;28;19917;-51
2021/12/03 18:54:17;;;;;;;;;;;4.80;99.90;;;;;;5017550;28;20012;-55
2021/12/03 18:56:51;;;;;;;;;;;4.70;99.90;;;;;;5015722;28;19924;-55
2021/12/03 18:59:17;;;;;;;;;;;4.70;99.90;;;;;;5017623;28;19921;-55
2021/12/03 19:01:43;;;;;;;;;;;4.80;99.90;;;;;;5036115;28;20284;-55
2021/12/03 19:09:26;;;;;;;;;;;4.70;99.90;;;;;;5034616;28;19921;-55
2021/12/03 19:12:06;;;;;;;;;;;4.70;99.90;;;;;;5034965;28;19917;-56
2021/12/03 19:14:35;;;;;;;;;;;4.70;99.90;;;;;;5034291;28;19920;-56
2021/12/03 19:17:01;;;;;;;;;;;4.70;99.90;;;;;;5035875;28;19924;-55